Time;durP1;ratioP1;P1;durP2;ratioP2;P2;SDS_P1;SDS_P2;PMS_P1;PMS_P2;Temp;Humidity;BMP_temperature;BMP_pressure;BME280_temperature;BME280_humidity;BME280_pressure;Samples;Min_cycle;Max_cycle;Signal;HPM_P1;HPM_P2
2022/03/17 00:00:32;;;;;;;8.05;2.40;;;26.00;99.90;;;;;;5091470;28;20025;-77
2022/03/17 00:03:01;;;;;;;11.93;1.90;;;26.20;99.90;;;;;;5091355;28;20078;-77
2022/03/17 00:05:28;;;;;;;8.95;2.13;;;25.90;99.90;;;;;;5091325;28;20036;-78
2022/03/17 00:07:58;;;;;;;7.70;1.80;;;25.70;99.90;;;;;;5091309;28;20103;-78
2022/03/17 00:10:26;;;;;;;5.88;1.48;;;25.30;99.90;;;;;;5091420;28;20034;-78
2022/03/17 00:12:54;;;;;;;8.02;1.52;;;25.80;99.90;;;;;;5092611;28;20138;-78
2022/03/17 00:15:21;;;;;;;11.73;2.17;;;26.30;99.90;;;;;;5091252;28;20032;-74
2022/03/17 00:17:49;;;;;;;9.95;2.45;;;26.50;99.90;;;;;;5092566;28;20021;-75
2022/03/17 00:20:16;;;;;;;5.43;2.03;;;26.50;99.90;;;;;;5091227;28;20031;-75
2022/03/17 00:22:44;;;;;;;8.88;1.98;;;26.20;99.90;;;;;;5092490;28;20099;-75
2022/03/17 00:25:12;;;;;;;8.27;2.30;;;26.10;99.90;;;;;;5091125;28;20016;-75
2022/03/17 00:27:41;;;;;;;6.78;1.83;;;26.10;99.90;;;;;;5092502;28;20115;-75
2022/03/17 00:30:09;;;;;;;5.95;1.65;;;25.90;99.90;;;;;;5074122;28;20032;-76
2022/03/17 00:32:38;;;;;;;9.05;1.92;;;26.00;99.90;;;;;;5092466;28;20021;-76
2022/03/17 00:37:55;;;;;;;2.70;0.70;;;26.50;99.90;;;;;;5092533;28;20043;-76
2022/03/17 00:40:23;;;;;;;4.22;1.40;;;27.00;99.90;;;;;;5090820;28;20028;-76
2022/03/17 00:42:53;;;;;;;6.70;1.00;;;27.20;99.90;;;;;;5091851;28;20112;-76
2022/03/17 00:45:21;;;;;;;5.93;1.23;;;27.30;99.90;;;;;;5091570;28;20024;-76
2022/03/17 00:47:49;;;;;;;5.97;1.70;;;27.60;99.90;;;;;;5090833;28;20708;-76
2022/03/17 00:50:16;;;;;;;6.20;1.48;;;27.70;99.90;;;;;;5091960;28;20101;-76
2022/03/17 00:52:44;;;;;;;8.82;1.63;;;27.60;99.90;;;;;;5092026;28;20031;-77
2022/03/17 00:55:14;;;;;;;6.38;1.30;;;27.50;99.90;;;;;;5093425;28;20027;-77
2022/03/17 00:57:42;;;;;;;8.77;1.63;;;27.30;99.90;;;;;;5095643;28;20052;-76
2022/03/17 01:00:14;;;;;;;5.85;1.35;;;27.70;99.90;;;;;;5095544;28;20048;-77
2022/03/17 01:02:43;;;;;;;6.10;1.60;;;28.00;99.90;;;;;;5095646;28;20468;-77
2022/03/17 01:05:14;;;;;;;6.18;1.45;;;28.30;99.90;;;;;;5094950;28;20024;-76
2022/03/17 01:07:44;;;;;;;8.70;1.70;;;28.60;99.90;;;;;;5095768;28;20022;-77
2022/03/17 01:10:23;;;;;;;10.55;1.55;;;28.90;99.90;;;;;;5095611;28;20073;-78
2022/03/17 01:12:56;;;;;;;5.10;1.42;;;29.10;99.90;;;;;;5094470;28;20093;-77
2022/03/17 01:15:24;;;;;;;5.85;1.70;;;29.20;99.90;;;;;;5076611;28;20044;-77
2022/03/17 01:17:51;;;;;;;6.78;1.25;;;29.10;99.90;;;;;;5077503;28;20564;-76
2022/03/17 01:20:19;;;;;;;7.70;1.40;;;28.90;99.90;;;;;;5095490;28;20042;-77
2022/03/17 01:22:47;;;;;;;6.60;1.40;;;29.10;99.90;;;;;;5095425;28;20024;-77
2022/03/17 01:25:15;;;;;;;7.63;1.65;;;29.10;99.90;;;;;;5093973;28;20473;-77
2022/03/17 01:27:43;;;;;;;6.05;2.00;;;28.70;99.90;;;;;;5095264;28;20019;-77
2022/03/17 01:30:11;;;;;;;7.13;1.67;;;28.10;99.90;;;;;;5094182;28;20070;-76
2022/03/17 01:32:43;;;;;;;5.70;1.10;;;28.00;99.90;;;;;;5095050;28;20469;-77
2022/03/17 01:35:11;;;;;;;5.80;1.27;;;27.80;99.90;;;;;;5093524;28;20179;-76
2022/03/17 01:37:39;;;;;;;6.53;1.50;;;27.90;99.90;;;;;;5095109;28;20100;-77
2022/03/17 01:40:09;;;;;;;7.43;1.50;;;27.90;99.90;;;;;;5094933;28;20031;-77
2022/03/17 01:42:37;;;;;;;5.93;1.52;;;28.20;99.90;;;;;;5094632;28;20024;-77
2022/03/17 01:45:06;;;;;;;6.90;1.45;;;28.20;99.90;;;;;;5094814;28;20496;-77
2022/03/17 01:47:34;;;;;;;6.97;1.20;;;28.20;99.90;;;;;;5094744;28;20077;-77
2022/03/17 01:50:09;;;;;;;5.80;1.33;;;28.10;99.90;;;;;;5094924;28;20017;-78
2022/03/17 01:52:37;;;;;;;7.70;1.60;;;28.00;99.90;;;;;;5094800;28;20050;-77
2022/03/17 01:55:07;;;;;;;6.32;1.13;;;28.00;99.90;;;;;;5093371;28;20032;-78
2022/03/17 01:57:35;;;;;;;9.02;1.30;;;28.40;99.90;;;;;;5093940;28;20051;-78
2022/03/17 02:00:07;;;;;;;8.93;1.55;;;28.40;99.90;;;;;;5092983;28;20020;-78
2022/03/17 02:02:35;;;;;;;7.15;1.40;;;28.50;99.90;;;;;;5094745;28;20419;-78
2022/03/17 02:05:07;;;;;;;8.80;1.35;;;28.00;99.90;;;;;;5094236;28;20056;-78
2022/03/17 02:07:35;;;;;;;9.87;2.10;;;28.20;99.90;;;;;;5094481;28;20115;-78
2022/03/17 02:10:05;;;;;;;5.32;1.15;;;28.30;99.90;;;;;;5094572;28;20759;-78
2022/03/17 02:15:18;;;;;;;6.65;1.27;;;28.40;99.90;;;;;;5094483;28;20606;-78
2022/03/17 02:17:47;;;;;;;6.47;1.17;;;28.80;99.90;;;;;;5094484;28;20027;-78
2022/03/17 02:20:15;;;;;;;5.95;1.27;;;28.90;99.90;;;;;;5093034;28;20028;-78
2022/03/17 02:22:50;;;;;;;5.88;1.50;;;29.10;99.90;;;;;;5094279;28;20020;-78
2022/03/17 02:25:35;;;;;;;6.60;1.38;;;29.00;99.90;;;;;;5092959;28;20031;-78
2022/03/17 02:28:07;;;;;;;5.15;1.20;;;28.90;99.90;;;;;;5094257;28;20101;-78
2022/03/17 02:30:38;;;;;;;6.82;1.70;;;28.90;99.90;;;;;;5092861;28;20039;-78
2022/03/17 02:33:09;;;;;;;5.72;1.35;;;28.80;99.90;;;;;;5094104;28;20023;-79
2022/03/17 02:35:39;;;;;;;7.65;1.40;;;28.90;99.90;;;;;;5093860;28;20052;-78
2022/03/17 02:38:08;;;;;;;10.02;1.60;;;29.10;99.90;;;;;;5094019;28;20380;-79
2022/03/17 02:40:37;;;;;;;7.13;1.20;;;28.90;99.90;;;;;;5094033;28;20094;-79
2022/03/17 02:43:05;;;;;;;4.55;1.42;;;28.90;99.90;;;;;;5093857;28;20024;-79
2022/03/17 02:45:33;;;;;;;4.53;1.38;;;28.80;99.90;;;;;;5093839;28;20074;-79
2022/03/17 02:48:01;;;;;;;3.38;0.98;;;28.80;99.90;;;;;;5093615;28;20163;-78
2022/03/17 02:50:28;;;;;;;5.40;1.08;;;29.00;99.90;;;;;;5093377;28;20512;-78
2022/03/17 02:52:57;;;;;;;5.00;1.30;;;28.90;99.90;;;;;;5092057;28;20115;-78
2022/03/17 02:55:25;;;;;;;4.68;1.10;;;29.10;99.90;;;;;;5093252;28;20024;-78
2022/03/17 02:57:52;;;;;;;7.07;1.52;;;29.40;99.90;;;;;;5091690;28;20030;-78
2022/03/17 03:00:19;;;;;;;4.35;1.27;;;29.10;99.90;;;;;;5092972;28;20085;-77
2022/03/17 03:02:47;;;;;;;9.98;1.58;;;29.10;99.90;;;;;;5092970;28;20136;-79
2022/03/17 03:05:14;;;;;;;7.93;1.48;;;28.70;99.90;;;;;;5092775;28;20472;-78
2022/03/17 03:07:41;;;;;;;4.55;1.10;;;28.90;99.90;;;;;;5092739;28;20077;-78
2022/03/17 03:10:09;;;;;;;7.05;1.23;;;28.90;99.90;;;;;;5092866;28;20061;-78
2022/03/17 03:12:37;;;;;;;4.82;1.10;;;28.60;99.90;;;;;;5092677;28;20476;-78
2022/03/17 03:15:04;;;;;;;3.92;0.80;;;28.20;99.90;;;;;;5092575;28;20016;-78
2022/03/17 03:17:32;;;;;;;4.38;1.40;;;28.20;99.90;;;;;;5091923;28;20500;-78
2022/03/17 03:20:00;;;;;;;6.32;1.15;;;28.40;99.90;;;;;;5091093;28;20419;-77
2022/03/17 03:22:29;;;;;;;7.68;1.30;;;28.20;99.90;;;;;;5091227;28;20024;-78
2022/03/17 03:24:57;;;;;;;5.85;1.10;;;28.30;99.90;;;;;;5092408;28;20028;-78
2022/03/17 03:27:27;;;;;;;4.38;1.02;;;28.30;99.90;;;;;;5092416;28;20369;-77
2022/03/17 03:29:58;;;;;;;6.18;1.20;;;28.30;99.90;;;;;;5091314;28;20480;-77
2022/03/17 03:32:27;;;;;;;4.82;1.13;;;28.20;99.90;;;;;;5092380;28;20020;-78
2022/03/17 03:34:54;;;;;;;5.47;1.35;;;28.20;99.90;;;;;;5090799;28;20498;-78
2022/03/17 03:37:28;;;;;;;8.52;2.05;;;27.90;99.90;;;;;;5091342;28;20044;-78
2022/03/17 03:39:57;;;;;;;3.35;0.85;;;28.10;99.90;;;;;;5090953;28;20066;-77
2022/03/17 03:42:27;;;;;;;6.25;1.10;;;28.00;99.90;;;;;;5092165;28;20038;-78
2022/03/17 03:44:54;;;;;;;;;;;28.10;99.90;;;;;;5092839;28;20061;-77
2022/03/17 03:47:21;;;;;;;8.00;1.50;;;28.10;99.90;;;;;;5092358;28;19924;-78
2022/03/17 03:49:51;;;;;;;7.78;1.35;;;28.20;99.90;;;;;;5092141;28;20031;-78
2022/03/17 03:52:19;;;;;;;6.15;0.90;;;28.00;99.90;;;;;;5090926;28;20024;-78
2022/03/17 03:54:46;;;;;;;6.00;1.13;;;28.10;99.90;;;;;;5092068;28;20024;-78
2022/03/17 03:57:13;;;;;;;5.40;1.60;;;28.10;99.90;;;;;;5090690;28;20073;-78
2022/03/17 03:59:42;;;;;;;4.75;1.50;;;27.90;99.90;;;;;;5092114;28;20137;-77
2022/03/17 04:02:10;;;;;;;5.00;1.42;;;27.80;99.90;;;;;;5090731;28;20024;-78
2022/03/17 04:04:42;;;;;;;7.28;1.67;;;27.70;99.90;;;;;;5091899;28;20388;-78
2022/03/17 04:07:11;;;;;;;5.30;1.20;;;27.70;99.90;;;;;;5092163;28;20031;-79
2022/03/17 04:09:41;;;;;;;7.65;1.15;;;27.70;99.90;;;;;;5091942;28;20020;-77
2022/03/17 04:12:09;;;;;;;;;;;27.70;99.90;;;;;;5092468;28;20396;-78
2022/03/17 04:14:37;;;;;;;5.72;1.30;;;27.80;99.90;;;;;;5090709;28;20330;-76
2022/03/17 04:17:05;;;;;;;3.90;1.00;;;27.80;99.90;;;;;;5091957;28;20054;-78
2022/03/17 04:19:32;;;;;;;4.35;1.17;;;27.90;99.90;;;;;;5092225;28;20387;-79
2022/03/17 04:21:59;;;;;;;6.22;1.70;;;28.10;99.90;;;;;;5092005;28;20020;-79
2022/03/17 04:24:27;;;;;;;4.40;1.33;;;28.00;99.90;;;;;;5091984;28;20029;-77
2022/03/17 04:26:54;;;;;;;6.40;1.40;;;27.80;99.90;;;;;;5092043;28;20388;-78
2022/03/17 04:29:21;;;;;;;6.05;1.35;;;27.60;99.90;;;;;;5092776;28;20028;-78
2022/03/17 04:31:49;;;;;;;4.30;1.45;;;27.50;99.90;;;;;;5094647;28;20024;-78
2022/03/17 04:34:18;;;;;;;6.22;1.10;;;27.50;99.90;;;;;;5095858;28;20036;-78
2022/03/17 04:36:45;;;;;;;4.82;1.23;;;27.60;99.90;;;;;;5095643;28;20080;-76
2022/03/17 04:39:13;;;;;;;4.25;0.90;;;27.60;99.90;;;;;;5095786;28;20054;-77
2022/03/17 04:41:41;;;;;;;6.00;1.30;;;27.90;99.90;;;;;;5095684;28;20107;-77
2022/03/17 04:44:09;;;;;;;5.55;1.08;;;27.90;99.90;;;;;;5095701;28;20016;-75
2022/03/17 04:46:37;;;;;;;6.78;1.88;;;28.00;99.90;;;;;;5094064;28;20488;-76
2022/03/17 04:49:04;;;;;;;5.82;1.35;;;28.10;99.90;;;;;;5094154;28;20437;-78
2022/03/17 04:51:32;;;;;;;5.20;1.15;;;28.10;99.90;;;;;;5093982;28;20024;-78
2022/03/17 04:54:01;;;;;;;3.55;0.93;;;28.00;99.90;;;;;;5093903;28;20028;-78
2022/03/17 04:56:29;;;;;;;5.22;0.90;;;27.90;99.90;;;;;;5093857;28;20063;-77
2022/03/17 04:58:56;;;;;;;6.30;1.20;;;27.60;99.90;;;;;;5095295;28;20060;-77
2022/03/17 05:01:23;;;;;;;4.32;0.70;;;27.50;99.90;;;;;;5094975;28;20020;-78
2022/03/17 05:03:51;;;;;;;6.05;0.98;;;27.50;99.90;;;;;;5095124;28;20020;-78
2022/03/17 05:06:18;;;;;;;5.53;0.90;;;27.50;99.90;;;;;;5095067;28;20394;-77
2022/03/17 05:08:46;;;;;;;5.25;1.05;;;27.40;99.90;;;;;;5095043;28;20391;-76
2022/03/17 05:11:13;;;;;;;4.85;1.10;;;27.40;99.90;;;;;;5094981;28;20039;-77
2022/03/17 05:13:42;;;;;;;5.68;1.13;;;27.20;99.90;;;;;;5093637;28;20099;-77
2022/03/17 05:16:10;;;;;;;2.23;0.70;;;27.20;99.90;;;;;;5093446;28;20118;-77
2022/03/17 05:18:38;;;;;;;3.17;0.70;;;27.30;99.90;;;;;;5093614;28;20487;-77
2022/03/17 05:21:06;;;;;;;3.67;0.90;;;27.30;99.90;;;;;;5093385;28;20025;-76
2022/03/17 05:23:33;;;;;;;4.82;0.95;;;27.20;99.90;;;;;;5093164;28;20066;-77
2022/03/17 05:26:01;;;;;;;3.67;0.98;;;27.30;99.90;;;;;;5093304;28;20127;-78
2022/03/17 05:28:28;;;;;;;3.95;1.13;;;27.20;99.90;;;;;;5093429;28;20081;-81
2022/03/17 05:30:56;;;;;;;9.10;1.35;;;27.30;99.90;;;;;;5094890;28;20031;-78
2022/03/17 05:33:23;;;;;;;4.70;1.00;;;27.30;99.90;;;;;;5093290;28;20066;-76
2022/03/17 05:35:51;;;;;;;4.50;0.90;;;27.20;99.90;;;;;;5094357;28;20047;-76
2022/03/17 05:38:18;;;;;;;4.53;1.00;;;27.00;99.90;;;;;;5094558;28;20077;-77
2022/03/17 05:40:45;;;;;;;3.63;0.90;;;26.80;99.90;;;;;;5093957;28;20020;-77
2022/03/17 05:43:13;;;;;;;4.78;0.80;;;26.80;99.90;;;;;;5094400;28;20070;-78
2022/03/17 05:45:43;;;;;;;4.22;0.90;;;26.80;99.90;;;;;;5094446;28;20036;-76
2022/03/17 05:48:11;;;;;;;3.70;1.05;;;26.80;99.90;;;;;;5093277;28;20644;-75
2022/03/17 05:50:45;;;;;;;5.88;0.85;;;26.70;99.90;;;;;;5094276;28;20115;-75
2022/03/17 05:53:12;;;;;;;4.40;1.05;;;26.60;99.90;;;;;;5092899;28;20480;-75
2022/03/17 05:55:40;;;;;;;7.38;1.15;;;26.50;99.90;;;;;;5094255;28;20052;-75
2022/03/17 05:58:07;;;;;;;4.22;0.85;;;26.60;99.90;;;;;;5092769;28;20502;-76
2022/03/17 06:00:35;;;;;;;5.90;1.10;;;26.60;99.90;;;;;;5094045;28;20067;-74
2022/03/17 06:03:04;;;;;;;3.05;0.90;;;26.40;99.90;;;;;;5092714;28;20115;-75
2022/03/17 06:05:31;;;;;;;3.75;0.82;;;26.40;99.90;;;;;;5094024;28;20111;-75
2022/03/17 06:08:00;;;;;;;4.35;0.90;;;26.10;99.90;;;;;;5094027;28;20020;-75
2022/03/17 06:10:33;;;;;;;4.20;0.80;;;26.10;99.90;;;;;;5093931;28;20051;-76
2022/03/17 06:13:05;;;;;;;5.68;1.38;;;26.10;99.90;;;;;;5093935;28;20035;-75
2022/03/17 06:15:36;;;;;;;3.63;0.90;;;25.80;99.90;;;;;;5093818;28;20020;-74
2022/03/17 06:18:06;;;;;;;4.78;1.20;;;25.60;99.90;;;;;;5093826;28;20412;-75
2022/03/17 06:20:35;;;;;;;5.35;1.08;;;25.40;99.90;;;;;;5093784;28;20507;-75
2022/03/17 06:23:04;;;;;;;4.72;0.90;;;25.30;99.90;;;;;;5093751;28;20024;-74
2022/03/17 06:25:34;;;;;;;4.30;1.02;;;25.30;99.90;;;;;;5092322;28;20081;-75
2022/03/17 06:28:03;;;;;;;8.60;1.38;;;25.20;99.90;;;;;;5093506;28;20016;-74
2022/03/17 06:30:31;;;;;;;5.75;0.90;;;25.10;99.90;;;;;;5093540;28;20556;-76
2022/03/17 06:33:01;;;;;;;6.03;1.00;;;25.20;99.90;;;;;;5093466;28;20047;-74
2022/03/17 06:35:29;;;;;;;4.73;0.83;;;25.20;99.90;;;;;;5093268;28;20036;-75
2022/03/17 06:37:59;;;;;;;6.18;1.05;;;25.20;99.90;;;;;;5093393;28;20395;-75
2022/03/17 06:40:27;;;;;;;6.75;1.33;;;25.20;99.90;;;;;;5092035;28;20017;-76
2022/03/17 06:42:55;;;;;;;5.03;1.10;;;25.20;99.90;;;;;;5093226;28;20021;-75
2022/03/17 06:45:23;;;;;;;3.10;1.13;;;25.30;99.90;;;;;;5093193;28;20027;-75
2022/03/17 06:47:51;;;;;;;5.47;1.25;;;25.30;99.90;;;;;;5093172;28;20027;-75
2022/03/17 06:50:22;;;;;;;5.18;1.10;;;25.40;99.90;;;;;;5093193;28;20411;-75
2022/03/17 06:52:51;;;;;;;3.28;0.70;;;25.50;99.90;;;;;;5090782;28;20047;-75
2022/03/17 06:55:19;;;;;;;5.30;1.00;;;25.60;99.90;;;;;;5092892;28;20016;-75
2022/03/17 06:57:47;;;;;;;3.40;0.73;;;25.50;99.90;;;;;;5091710;28;20052;-74
2022/03/17 07:00:17;;;;;;;6.15;1.15;;;25.50;99.90;;;;;;5092841;28;20073;-75
2022/03/17 07:02:45;;;;;;;3.15;0.88;;;25.50;99.90;;;;;;5091583;28;20047;-75
2022/03/17 07:05:12;;;;;;;7.55;0.93;;;25.40;99.90;;;;;;5092915;28;20107;-74
2022/03/17 07:07:40;;;;;;;5.45;1.10;;;25.30;99.90;;;;;;5091460;28;20020;-75
2022/03/17 07:10:08;;;;;;;5.88;0.93;;;25.20;99.90;;;;;;5092730;28;20028;-74
2022/03/17 07:12:36;;;;;;;4.25;0.90;;;25.10;99.90;;;;;;5091403;28;20027;-76
2022/03/17 07:15:07;;;;;;;3.78;0.82;;;25.10;99.90;;;;;;5092623;28;20103;-75
2022/03/17 07:17:41;;;;;;;4.45;0.57;;;25.00;99.90;;;;;;5092599;28;20020;-75
2022/03/17 07:20:14;;;;;;;2.85;0.73;;;24.80;99.90;;;;;;5092661;28;20384;-75
2022/03/17 07:22:44;;;;;;;5.13;1.00;;;24.80;99.90;;;;;;5092637;28;20042;-75
2022/03/17 07:25:12;;;;;;;6.28;1.13;;;24.80;99.90;;;;;;5092495;28;20394;-75
2022/03/17 07:27:42;;;;;;;4.82;1.13;;;24.60;99.90;;;;;;5092432;28;20020;-75
2022/03/17 07:30:18;;;;;;;4.25;0.80;;;24.60;99.90;;;;;;5091098;28;20097;-75
2022/03/17 07:32:48;;;;;;;5.50;1.08;;;24.50;99.90;;;;;;5092580;28;20031;-75
2022/03/17 07:35:16;;;;;;;3.90;0.80;;;24.40;99.90;;;;;;5090768;28;20043;-75
2022/03/17 07:37:43;;;;;;;3.22;0.90;;;24.30;99.90;;;;;;5092370;28;20024;-75
2022/03/17 07:40:12;;;;;;;5.35;1.35;;;24.30;99.90;;;;;;5092303;28;20091;-75
2022/03/17 07:42:40;;;;;;;4.22;0.90;;;24.20;99.90;;;;;;5091944;28;20027;-78
2022/03/17 07:45:08;;;;;;;4.00;0.82;;;24.10;99.90;;;;;;5090937;28;20020;-76
2022/03/17 07:47:35;;;;;;;5.68;0.88;;;24.00;99.90;;;;;;5090938;28;20035;-76
2022/03/17 07:50:04;;;;;;;4.05;0.98;;;23.90;99.90;;;;;;5091973;28;20070;-76
2022/03/17 07:52:32;;;;;;;4.70;0.90;;;24.00;99.90;;;;;;5092242;28;20081;-75
2022/03/17 07:54:59;;;;;;;4.18;1.30;;;23.90;99.90;;;;;;5091149;28;20028;-75
2022/03/17 07:57:26;;;;;;;5.45;0.90;;;23.70;99.90;;;;;;5092286;28;20133;-77
2022/03/17 07:59:54;;;;;;;3.58;0.82;;;23.80;99.90;;;;;;5092092;28;20476;-76
2022/03/17 08:02:21;;;;;;;6.78;1.75;;;23.70;99.90;;;;;;5092122;28;20117;-75
2022/03/17 08:04:50;;;;;;;5.18;1.17;;;23.70;99.90;;;;;;5093733;28;20032;-76
2022/03/17 08:07:18;;;;;;;6.00;0.85;;;23.60;99.90;;;;;;5096253;28;20043;-78
2022/03/17 08:09:45;;;;;;;3.33;0.82;;;23.50;99.90;;;;;;5096427;28;20095;-76
2022/03/17 08:12:13;;;;;;;4.53;0.85;;;23.50;99.90;;;;;;5096136;28;20024;-75
2022/03/17 08:14:41;;;;;;;6.55;1.02;;;23.50;99.90;;;;;;5096326;28;20028;-76
2022/03/17 08:17:09;;;;;;;6.53;1.30;;;23.40;99.90;;;;;;5096054;28;20030;-76
2022/03/17 08:19:37;;;;;;;5.15;1.13;;;23.40;99.90;;;;;;5094811;28;20063;-75
2022/03/17 08:22:04;;;;;;;3.80;0.88;;;23.40;99.90;;;;;;5094567;28;20564;-75
2022/03/17 08:24:31;;;;;;;6.50;1.40;;;23.40;99.90;;;;;;5096129;28;20016;-75
2022/03/17 08:27:01;;;;;;;8.20;1.23;;;23.40;99.90;;;;;;5094596;28;20480;-76
2022/03/17 08:29:30;;;;;;;7.13;1.73;;;23.40;99.90;;;;;;5095987;28;20055;-76
2022/03/17 08:31:57;;;;;;;5.03;1.33;;;23.30;99.90;;;;;;5095903;28;20054;-78
2022/03/17 08:34:26;;;;;;;6.28;1.10;;;23.30;99.90;;;;;;5094400;28;20036;-76
2022/03/17 08:36:54;;;;;;;3.47;1.05;;;23.20;99.90;;;;;;5095989;28;20036;-78
2022/03/17 08:39:22;;;;;;;5.50;0.80;;;23.10;99.90;;;;;;5097467;28;20027;-76
2022/03/17 08:41:51;;;;;;;3.47;1.10;;;23.20;99.90;;;;;;5095583;28;20024;-76
2022/03/17 08:44:19;;;;;;;6.22;1.08;;;23.10;99.90;;;;;;5095309;28;20017;-78
2022/03/17 08:49:32;;;;;;;5.97;1.27;;;23.10;99.90;;;;;;5096359;28;20077;-77
2022/03/17 08:52:01;;;;;;;6.15;1.50;;;23.10;99.90;;;;;;5096826;28;20486;-77
2022/03/17 08:54:33;;;;;;;6.55;1.25;;;23.00;99.90;;;;;;5095393;28;20030;-76
2022/03/17 08:57:01;;;;;;;6.10;1.20;;;23.00;99.90;;;;;;5096274;28;20468;-76
2022/03/17 08:59:32;;;;;;;6.03;1.42;;;23.00;99.90;;;;;;5096680;28;20024;-77
2022/03/17 09:02:00;;;;;;;5.75;1.40;;;23.00;99.90;;;;;;5095166;28;20016;-77
2022/03/17 09:04:28;;;;;;;4.88;1.00;;;22.90;99.90;;;;;;5094795;28;20031;-76
2022/03/17 09:07:00;;;;;;;5.43;1.27;;;22.90;99.90;;;;;;5095887;28;20096;-75
2022/03/17 09:09:28;;;;;;;5.72;1.33;;;22.90;99.90;;;;;;5095805;28;20031;-76
2022/03/17 09:11:56;;;;;;;5.07;1.15;;;22.90;99.90;;;;;;5095970;28;20027;-77
2022/03/17 09:14:25;;;;;;;5.18;1.45;;;22.90;99.90;;;;;;5096105;28;20024;-77
2022/03/17 09:16:53;;;;;;;3.83;1.05;;;22.90;99.90;;;;;;5093954;28;20034;-79
2022/03/17 09:19:20;;;;;;;5.70;1.30;;;23.00;99.90;;;;;;5095717;28;20016;-76
2022/03/17 09:21:48;;;;;;;6.53;1.25;;;23.00;99.90;;;;;;5094614;28;20028;-76
2022/03/17 09:24:15;;;;;;;6.45;1.10;;;22.90;99.90;;;;;;5094358;28;20024;-76
2022/03/17 09:26:43;;;;;;;6.90;1.23;;;22.90;99.90;;;;;;5095711;28;20432;-76
2022/03/17 09:29:10;;;;;;;6.97;1.05;;;22.90;99.90;;;;;;5095713;28;20039;-77
2022/03/17 09:31:38;;;;;;;9.40;1.13;;;22.90;99.90;;;;;;5094205;28;20024;-76
2022/03/17 09:34:05;;;;;;;3.55;0.80;;;22.90;99.90;;;;;;5095278;28;20040;-76
2022/03/17 09:36:33;;;;;;;5.78;1.13;;;22.90;99.90;;;;;;5095071;28;20035;-76
2022/03/17 09:41:45;;;;;;;6.93;1.50;;;22.90;99.90;;;;;;5095503;28;20091;-77
2022/03/17 09:44:14;;;;;;;11.52;1.63;;;22.90;99.90;;;;;;5095620;28;20366;-76
2022/03/17 09:46:44;;;;;;;5.97;1.50;;;22.90;99.90;;;;;;5095300;28;20023;-76
2022/03/17 09:49:11;;;;;;;5.30;1.13;;;22.80;99.90;;;;;;5093849;28;20408;-76
2022/03/17 09:51:44;;;;;;;7.03;1.40;;;22.80;99.90;;;;;;5093908;28;20563;-76
2022/03/17 09:54:11;;;;;;;6.60;1.20;;;22.80;99.90;;;;;;5095229;28;20024;-76
2022/03/17 09:56:39;;;;;;;7.72;1.10;;;22.70;99.90;;;;;;5094881;28;20061;-76
2022/03/17 09:59:06;;;;;;;7.85;1.30;;;22.70;99.90;;;;;;5094456;28;20024;-77
2022/03/17 10:01:35;;;;;;;4.07;0.93;;;22.70;99.90;;;;;;5094901;28;20468;-76
2022/03/17 10:04:04;;;;;;;8.57;1.65;;;22.60;99.90;;;;;;5094807;28;20016;-76
2022/03/17 10:06:31;;;;;;;6.30;1.52;;;22.60;99.90;;;;;;5093553;28;20020;-76
2022/03/17 10:08:59;;;;;;;6.15;1.40;;;22.60;99.90;;;;;;5094618;28;20108;-75
2022/03/17 10:11:37;;;;;;;7.90;1.83;;;22.60;99.90;;;;;;5093205;28;20027;-76
2022/03/17 10:14:06;;;;;;;7.20;1.50;;;22.60;99.90;;;;;;5094581;28;20055;-76
2022/03/17 10:16:34;;;;;;;6.97;1.40;;;22.50;99.90;;;;;;5094473;28;20059;-75
2022/03/17 10:19:08;;;;;;;6.63;1.55;;;22.50;99.90;;;;;;5094714;28;20047;-75
2022/03/17 10:21:37;;;;;;;5.47;1.50;;;22.50;99.90;;;;;;5093224;28;20377;-75
2022/03/17 10:24:09;;;;;;;6.35;1.45;;;22.50;99.90;;;;;;5094725;28;20017;-76
2022/03/17 10:26:44;;;;;;;7.22;1.60;;;22.50;99.90;;;;;;5094288;28;20483;-76
2022/03/17 10:29:19;;;;;;;5.82;1.48;;;22.50;99.90;;;;;;5093148;28;20481;-77
2022/03/17 10:32:01;;;;;;;6.38;1.33;;;22.50;99.90;;;;;;5094503;28;20475;-76
2022/03/17 10:34:55;;;;;;;5.13;1.17;;;22.40;99.90;;;;;;5094401;28;20039;-76
2022/03/17 10:37:24;;;;;;;7.25;1.98;;;22.40;99.90;;;;;;5087334;28;20048;-76
2022/03/17 10:39:57;;;;;;;5.00;1.42;;;22.40;99.90;;;;;;5094474;28;20419;-75
2022/03/17 10:42:29;;;;;;;5.28;1.45;;;22.40;99.90;;;;;;5094185;28;20024;-75
2022/03/17 10:45:05;;;;;;;5.32;1.13;;;22.40;99.90;;;;;;5094290;28;20020;-76
2022/03/17 10:47:37;;;;;;;5.85;1.80;;;22.40;99.90;;;;;;5094196;28;20068;-75
2022/03/17 10:50:08;;;;;;;5.85;1.35;;;22.50;99.90;;;;;;5094049;28;20085;-76
2022/03/17 10:52:45;;;;;;;8.65;1.42;;;22.50;99.90;;;;;;5092915;28;20480;-76
2022/03/17 10:55:14;;;;;;;8.45;1.40;;;22.50;99.90;;;;;;5094037;28;20055;-77
2022/03/17 10:57:41;;;;;;;10.55;1.80;;;22.50;99.90;;;;;;5092797;28;20414;-77
2022/03/17 11:00:22;;;;;;;7.88;1.98;;;22.50;99.90;;;;;;5093149;28;20085;-76
2022/03/17 11:02:49;;;;;;;;;;;22.50;99.90;;;;;;5094406;28;20020;-77
2022/03/17 11:05:20;;;;;;;7.80;1.73;;;22.50;99.90;;;;;;5093766;28;19911;-77
2022/03/17 11:07:48;;;;;;;9.80;1.73;;;22.50;99.90;;;;;;5093814;28;20475;-76
2022/03/17 11:10:16;;;;;;;6.95;1.52;;;22.50;99.90;;;;;;5093851;28;20047;-77
2022/03/17 11:12:43;;;;;;;9.10;1.63;;;22.50;99.90;;;;;;5092606;28;20032;-77
2022/03/17 11:15:12;;;;;;;10.77;2.20;;;22.50;99.90;;;;;;5093049;28;20017;-77
2022/03/17 11:17:49;;;;;;;7.45;1.50;;;22.50;99.90;;;;;;5092313;28;20032;-77
2022/03/17 11:20:23;;;;;;;7.00;1.60;;;22.50;99.90;;;;;;5092444;28;20152;-77
2022/03/17 11:23:23;;;;;;;7.75;1.83;;;22.50;99.90;;;;;;5093196;28;20043;-76
2022/03/17 11:25:53;;;;;;;;;;;22.50;99.90;;;;;;5093557;28;20016;-76
2022/03/17 11:28:50;;;;;;;7.93;2.00;;;22.50;99.90;;;;;;5093238;28;19904;-76
2022/03/17 11:31:23;;;;;;;9.77;1.73;;;22.50;99.90;;;;;;5080321;28;20036;-77
2022/03/17 11:34:03;;;;;;;12.00;2.15;;;22.50;99.90;;;;;;5091634;28;20149;-76
2022/03/17 11:36:31;;;;;;;6.32;1.58;;;22.50;99.90;;;;;;5091873;28;20032;-76
2022/03/17 11:39:18;;;;;;;8.23;1.70;;;22.50;99.90;;;;;;5092595;28;20071;-76
2022/03/17 11:41:47;;;;;;;8.10;1.60;;;22.50;99.90;;;;;;5093459;28;20488;-77
2022/03/17 11:44:30;;;;;;;10.73;2.60;;;22.40;99.90;;;;;;5093819;28;20024;-76
2022/03/17 11:46:57;;;;;;;8.25;1.88;;;22.40;99.90;;;;;;5093438;28;20107;-77
2022/03/17 11:49:27;;;;;;;8.70;1.90;;;22.40;99.90;;;;;;5093055;28;20020;-77
2022/03/17 11:52:00;;;;;;;8.50;1.67;;;22.40;99.90;;;;;;5092139;28;20118;-77
2022/03/17 11:54:29;;;;;;;8.48;1.85;;;22.40;99.90;;;;;;5093319;28;20036;-77
2022/03/17 11:57:04;;;;;;;6.72;1.60;;;22.40;99.90;;;;;;5091783;28;20048;-77
2022/03/17 11:59:55;;;;;;;8.73;1.70;;;22.40;99.90;;;;;;5093431;28;20020;-77
2022/03/17 12:02:30;;;;;;;7.47;1.60;;;22.40;99.90;;;;;;5092048;28;20024;-77
2022/03/17 12:05:09;;;;;;;7.97;1.50;;;22.40;99.90;;;;;;5092993;28;20067;-77
2022/03/17 12:07:47;;;;;;;7.95;1.20;;;22.40;99.90;;;;;;5093289;28;20073;-77
2022/03/17 12:10:34;;;;;;;8.95;1.98;;;22.40;99.90;;;;;;5091780;28;20040;-78
2022/03/17 12:13:24;;;;;;;7.05;1.40;;;22.40;99.90;;;;;;5091773;28;20123;-77
2022/03/17 12:15:58;;;;;;;6.88;1.63;;;22.40;99.90;;;;;;5091604;28;20028;-75
2022/03/17 12:18:26;;;;;;;5.40;1.90;;;22.40;99.90;;;;;;5091834;28;20162;-75
2022/03/17 12:20:54;;;;;;;7.93;2.15;;;22.40;99.90;;;;;;5092586;28;20028;-76
2022/03/17 12:23:49;;;;;;;5.43;1.63;;;22.40;99.90;;;;;;5092774;28;20027;-77
2022/03/17 12:26:21;;;;;;;8.57;1.95;;;22.40;99.90;;;;;;5092824;28;20020;-76
2022/03/17 12:28:48;;;;;;;6.00;1.30;;;22.40;99.90;;;;;;5091742;28;20073;-77
2022/03/17 12:31:16;;;;;;;9.23;1.80;;;22.40;99.90;;;;;;5092897;28;20077;-77
2022/03/17 12:33:46;;;;;;;8.05;1.70;;;22.40;99.90;;;;;;5091409;28;20032;-76
2022/03/17 12:36:15;;;;;;;8.55;1.85;;;22.40;99.90;;;;;;5092390;28;20111;-76
2022/03/17 12:38:43;;;;;;;7.82;1.85;;;22.40;99.90;;;;;;5091200;28;20027;-77
2022/03/17 12:41:13;;;;;;;7.30;1.92;;;22.40;99.90;;;;;;5091554;28;20030;-77
2022/03/17 12:43:41;;;;;;;7.68;1.85;;;22.30;99.90;;;;;;5092959;28;20142;-77
2022/03/17 12:46:09;;;;;;;9.30;2.22;;;22.30;99.90;;;;;;5092211;28;20032;-78
2022/03/17 12:48:37;;;;;;;7.05;1.55;;;22.40;99.90;;;;;;5091516;28;20024;-77
2022/03/17 12:51:11;;;;;;;7.07;1.80;;;22.30;99.90;;;;;;5094457;28;20119;-77
2022/03/17 12:53:41;;;;;;;8.70;1.80;;;22.30;99.90;;;;;;5095192;28;20028;-77
2022/03/17 12:56:09;;;;;;;8.68;1.83;;;22.30;99.90;;;;;;5096450;28;20419;-77
2022/03/17 12:58:42;;;;;;;6.53;1.80;;;22.30;99.90;;;;;;5096369;28;20050;-77
2022/03/17 13:01:16;;;;;;;9.13;2.10;;;22.30;99.90;;;;;;5096344;28;20016;-77
2022/03/17 13:03:48;;;;;;;9.00;2.05;;;22.30;99.90;;;;;;5095009;28;20051;-76
2022/03/17 13:09:11;;;;;;;8.38;1.92;;;22.30;99.90;;;;;;5096645;28;20042;-77
2022/03/17 13:14:25;;;;;;;7.32;2.15;;;22.30;99.90;;;;;;5096147;28;20043;-78
2022/03/17 13:17:05;;;;;;;8.07;2.00;;;22.40;99.90;;;;;;5095795;28;20024;-77